Terminal Aerodrome Forecast
Issued by NWS Duluth, MN

Home | Current Version | Previous Version | Text Only | Print | Product List | Glossary On
Versions: 1 2 3 4 5 6 7 8 9 10 11 12 13 14 15 16 17 18 19 20 21 22 23 24 25 26 27 28 29 30 31 32 33 34 35 36 37 38 39 40 41 42 43 44 45
000
FTUS43 KDLH 210500
TAFDLH
TAF
KDLH 210539Z 2106/2206 09008KT 3SM BR SCT002 BKN015
      TEMPO 2106/2109 1SM BR OVC002
     FM210900 08006KT 1 1/2SM BR SCT003 OVC006
     FM211500 08009KT 5SM BR VCSH OVC015
     FM211800 08010KT P6SM VCTS OVC050CB
     FM220000 08007KT 3SM -DZ BR OVC002=

USA.gov is the U.S. government's official web portal to all federal, state and local government web resources and services.